»·PEaware :: AAL2512 KMIA-KATL

AAL2512 :: KMIA-KATL

FLIGHT INFORMATION

Flight Status: Arrived
Operator:
American Airlines
More flights by this operator :: More flights under this callsign
Pilot: Drew L. (13237)
Aircraft: BOEING 737-800
(B738)
More flights by this aircraft type
Origin: KMIA Miami Intl
United States
Destination: KATL Hartsfield-Jackson Atlanta
United States
More flights between these airports :: More routes between these airports
Route: HEDLY2 HEDLY J81 CHESN LAIRI LARZZ JJEDI2
File this flight plan on PilotEdge
Remarks: PBN / A1B1C1D1S1S2 DOF / 180613 REG / N806SB EET / KZJX0026 KZTL0059 OPR / AAL PER / C RMK / TCAS SIMBRIEF
Altitude:
(Current/Filed)
32,000ft
Speed:
(Current/Filed)
420kts
Departed: 13-Jun-18 12:10 AM
Arrived: 13-Jun-18 01:33 AM
Distance/Time
Traveled:
518nm/1:23
Distance/Time
To Go:
Arrived

Flight Plot

Page will automatically refresh every two minutes.

Flight plan parsing failed; only flown route is shown


Map Options




Map Legend


Flown Route
Filed Route
Departure Airport
Arrival Airport
Navaid (VOR, NDB)
Fix

Horizontal Profiles

Position Reports

Time Latitude Longitude Heading Altitude Ground
Speed
12-Jun-18 23:47 25.798280 -80.280804 224 13ft 0kts
12-Jun-18 23:48 25.798280 -80.280804 224 13ft 0kts
12-Jun-18 23:49 25.798280 -80.280804 224 13ft 0kts
12-Jun-18 23:50 25.798280 -80.280804 224 13ft 0kts
12-Jun-18 23:51 25.798280 -80.280804 224 13ft 0kts
12-Jun-18 23:52 25.798280 -80.280804 224 13ft 0kts
12-Jun-18 23:53 25.798280 -80.280804 224 13ft 0kts
12-Jun-18 23:54 25.798280 -80.280804 224 13ft 0kts
12-Jun-18 23:55 25.798280 -80.280804 224 13ft 0kts
12-Jun-18 23:56 25.798280 -80.280804 224 13ft 0kts
12-Jun-18 23:57 25.798280 -80.280804 224 13ft 0kts
12-Jun-18 23:58 25.798280 -80.280804 224 13ft 0kts
12-Jun-18 23:59 25.798280 -80.280804 224 13ft 0kts
13-Jun-18 00:00 25.798280 -80.280804 224 13ft 0kts
13-Jun-18 00:01 25.798280 -80.280804 224 13ft 0kts
13-Jun-18 00:02 25.798280 -80.280804 224 13ft 0kts
13-Jun-18 00:03 25.798537 -80.280525 224 14ft 2kts
13-Jun-18 00:04 25.798768 -80.279945 271 14ft 2kts
13-Jun-18 00:05 25.798775 -80.279636 268 14ft 0kts
13-Jun-18 00:06 25.798775 -80.279636 268 14ft 0kts
13-Jun-18 00:07 25.799551 -80.282575 267 13ft 27kts
13-Jun-18 00:08 25.799093 -80.293963 267 13ft 37kts
13-Jun-18 00:09 25.800748 -80.300434 88 14ft 17kts
13-Jun-18 00:10 25.801762 -80.269819 90 608ft 163kts
13-Jun-18 00:11 25.804773 -80.211536 84 2703ft 206kts
13-Jun-18 00:12 25.836026 -80.155684 14 4141ft 263kts
13-Jun-18 00:13 25.906961 -80.168991 345 6777ft 275kts
13-Jun-18 00:14 25.974707 -80.206022 328 9209ft 286kts
13-Jun-18 00:15 26.039786 -80.259286 319 11030ft 315kts
13-Jun-18 00:16 26.109445 -80.321805 319 13295ft 333kts
13-Jun-18 00:17 26.180835 -80.385229 319 15800ft 345kts
13-Jun-18 00:18 26.262159 -80.444969 334 18185ft 362kts
13-Jun-18 00:19 26.356060 -80.489660 334 20312ft 375kts
13-Jun-18 00:20 26.453482 -80.535963 334 22235ft 387kts
13-Jun-18 00:21 26.553515 -80.583609 334 23975ft 398kts
13-Jun-18 00:22 26.656586 -80.632396 334 25541ft 409kts
13-Jun-18 00:23 26.761966 -80.682071 334 26973ft 418kts
13-Jun-18 00:24 26.870180 -80.724865 339 28249ft 429kts
13-Jun-18 00:25 26.984176 -80.765897 339 29439ft 438kts
13-Jun-18 00:26 27.099984 -80.807821 338 30837ft 439kts
13-Jun-18 00:27 27.213816 -80.849134 338 32095ft 437kts
13-Jun-18 00:28 27.319057 -80.887468 338 32120ft 461kts
13-Jun-18 00:29 27.425239 -80.926199 339 32114ft 479kts
13-Jun-18 00:30 27.550077 -80.971747 339 32111ft 478kts
13-Jun-18 00:31 27.674670 -81.017225 340 32111ft 477kts
13-Jun-18 00:32 27.798569 -81.062538 340 32113ft 474kts
13-Jun-18 00:33 27.922895 -81.107963 340 32124ft 472kts
13-Jun-18 00:34 28.044730 -81.152320 340 32135ft 471kts
13-Jun-18 00:35 28.165628 -81.196438 340 32131ft 470kts
13-Jun-18 00:36 28.283177 -81.239413 340 32129ft 471kts
13-Jun-18 00:37 28.402839 -81.283194 340 32132ft 471kts
13-Jun-18 00:38 28.525751 -81.328202 340 32129ft 471kts
13-Jun-18 00:39 28.650610 -81.370208 342 32128ft 471kts
13-Jun-18 00:40 28.775478 -81.411197 342 32136ft 471kts
13-Jun-18 00:41 28.898622 -81.451650 342 32131ft 472kts
13-Jun-18 00:42 29.023757 -81.493066 344 32130ft 472kts
13-Jun-18 00:43 29.144915 -81.533299 345 32119ft 453kts
13-Jun-18 00:44 29.265989 -81.573554 345 32123ft 455kts
13-Jun-18 00:45 29.387201 -81.613941 345 32122ft 455kts
13-Jun-18 00:46 29.508560 -81.654498 345 32132ft 455kts
13-Jun-18 00:47 29.629364 -81.694886 345 32147ft 455kts
13-Jun-18 00:48 29.750600 -81.735432 345 32156ft 455kts
13-Jun-18 00:49 29.871585 -81.775907 345 32143ft 455kts
13-Jun-18 00:50 29.992605 -81.816403 345 32129ft 455kts
13-Jun-18 00:51 30.111008 -81.856031 345 32126ft 455kts
13-Jun-18 00:52 30.231653 -81.896718 343 32126ft 455kts
13-Jun-18 00:53 30.351853 -81.941469 343 32134ft 455kts
13-Jun-18 00:54 30.472293 -81.986434 343 32136ft 455kts
13-Jun-18 00:55 30.592176 -82.031262 343 32141ft 455kts
13-Jun-18 00:56 30.712374 -82.076297 343 32130ft 455kts
13-Jun-18 00:57 30.832905 -82.121560 343 32128ft 455kts
13-Jun-18 00:58 30.952572 -82.166566 342 32124ft 448kts
13-Jun-18 00:59 31.071917 -82.211583 342 32128ft 454kts
13-Jun-18 01:00 31.188037 -82.255518 342 32130ft 454kts
13-Jun-18 01:01 31.307691 -82.300904 342 32128ft 454kts
13-Jun-18 01:02 31.427744 -82.346559 342 32128ft 454kts
13-Jun-18 01:03 31.547434 -82.392197 342 32119ft 454kts
13-Jun-18 01:04 31.667162 -82.437966 342 32122ft 454kts
13-Jun-18 01:05 31.787016 -82.483901 342 32122ft 454kts
13-Jun-18 01:06 31.906648 -82.529874 342 32120ft 454kts
13-Jun-18 01:07 32.015086 -82.601345 319 32117ft 454kts
13-Jun-18 01:08 32.109068 -82.698378 318 32125ft 454kts
13-Jun-18 01:09 32.202514 -82.794539 318 31225ft 465kts
13-Jun-18 01:10 32.298726 -82.893552 318 29228ft 452kts
13-Jun-18 01:11 32.393820 -82.991564 318 27245ft 459kts
13-Jun-18 01:12 32.490574 -83.091316 318 25261ft 465kts
13-Jun-18 01:13 32.588069 -83.192104 318 23279ft 469kts
13-Jun-18 01:14 32.684311 -83.292035 318 21242ft 433kts
13-Jun-18 01:15 32.769406 -83.380639 318 19336ft 392kts
13-Jun-18 01:16 32.850644 -83.465474 318 17734ft 386kts
13-Jun-18 01:17 32.930348 -83.548905 318 16128ft 378kts
13-Jun-18 01:18 33.007811 -83.630084 318 14530ft 369kts
13-Jun-18 01:19 33.083271 -83.709311 317 12942ft 360kts
13-Jun-18 01:20 33.157456 -83.787413 317 11342ft 353kts
13-Jun-18 01:21 33.228411 -83.866331 314 9746ft 347kts
13-Jun-18 01:22 33.296003 -83.947210 314 8143ft 341kts
13-Jun-18 01:23 33.365250 -84.021944 335 6530ft 336kts
13-Jun-18 01:24 33.452253 -84.031766 359 5983ft 283kts
13-Jun-18 01:25 33.525201 -84.033052 359 5371ft 254kts
13-Jun-18 01:26 33.585861 -84.066899 324 4381ft 245kts
13-Jun-18 01:27 33.622025 -84.116923 304 4008ft 238kts
13-Jun-18 01:28 33.652335 -84.182898 270 4002ft 217kts
13-Jun-18 01:29 33.645722 -84.254047 264 3654ft 221kts
13-Jun-18 01:30 33.646718 -84.325701 270 2325ft 205kts
13-Jun-18 01:31 33.646753 -84.385014 269 1381ft 152kts
13-Jun-18 01:32 33.646735 -84.424311 255 1032ft 45kts
13-Jun-18 01:33 33.641515 -84.428775 278 1032ft 0kts

Navigation Log

Ident Type
Flight plan parsing failed, navigation log unavailable